Time;durP1;ratioP1;P1;durP2;ratioP2;P2;SDS_P1;SDS_P2;PMS_P1;PMS_P2;Temp;Humidity;BMP_temperature;BMP_pressure;BME280_temperature;BME280_humidity;BME280_pressure;Samples;Min_cycle;Max_cycle;Signal;HPM_P1;HPM_P2
2023/03/12 00:00:24;;;;;;;5.70;4.55;;;;;;;-7.47;59.27;97568.22;6327197;28;20547;-66
2023/03/12 00:03:29;;;;;;;7.25;4.13;;;;;;;-7.47;59.51;97571.66;6326953;28;20046;-67
2023/03/12 00:06:34;;;;;;;7.90;4.38;;;;;;;-7.49;59.23;97577.56;6327087;28;20430;-66
2023/03/12 00:09:40;;;;;;;5.68;4.35;;;;;;;-7.53;59.51;97584.31;6327206;28;20044;-68
2023/03/12 00:12:45;;;;;;;6.03;4.28;;;;;;;-7.57;59.22;97586.78;6326792;28;20438;-67
2023/03/12 00:15:50;;;;;;;8.00;4.68;;;;;;;-7.61;59.44;97588.44;6325357;28;20051;-67
2023/03/12 00:18:55;;;;;;;9.23;4.97;;;;;;;-7.64;59.87;97593.50;6322418;28;20044;-66
2023/03/12 00:22:00;;;;;;;8.93;5.15;;;;;;;-7.69;59.64;97595.94;6322568;28;20059;-66
2023/03/12 00:25:04;;;;;;;8.68;5.38;;;;;;;-7.71;59.94;97602.72;6322637;28;20036;-67
2023/03/12 00:28:08;;;;;;;6.95;4.45;;;;;;;-7.70;59.82;97609.56;6322570;28;20501;-67
2023/03/12 00:31:21;;;;;;;9.65;5.32;;;;;;;-7.74;59.27;97612.88;6322553;28;20050;-66
2023/03/12 00:34:26;;;;;;;13.55;5.88;;;;;;;-7.85;59.72;97606.72;6303716;28;20081;-66
2023/03/12 00:37:32;;;;;;;8.77;5.70;;;;;;;-7.87;59.78;97620.28;6320750;28;20440;-67
2023/03/12 00:40:35;;;;;;;11.25;6.72;;;;;;;-7.91;59.40;97629.59;6322368;28;20043;-67
2023/03/12 00:43:39;;;;;;;8.93;5.90;;;;;;;-7.94;59.72;97632.09;6320779;28;20070;-67
2023/03/12 00:46:43;;;;;;;;;;;;;;;-7.94;60.07;97638.06;6322674;28;20058;-67
2023/03/12 00:49:48;;;;;;;9.82;6.15;;;;;;;-7.99;59.53;97646.44;6320973;28;20029;-67
2023/03/12 00:52:53;;;;;;;15.25;6.20;;;;;;;-8.01;59.83;97653.22;6321959;28;20048;-67
2023/03/12 00:55:57;;;;;;;16.42;7.10;;;;;;;-8.07;59.70;97653.94;6321950;28;20527;-67
2023/03/12 00:59:01;;;;;;;;;;;;;;;-8.04;59.90;97653.16;6322332;28;20055;-66
2023/03/12 01:02:07;;;;;;;8.77;6.15;;;;;;;-8.11;59.59;97662.38;6321777;28;20037;-66
2023/03/12 01:05:13;;;;;;;9.10;5.90;;;;;;;-8.12;59.57;97670.91;6321931;28;20410;-67
2023/03/12 01:08:18;;;;;;;7.60;5.68;;;;;;;-8.16;59.81;97664.84;6322150;28;20062;-67
2023/03/12 01:11:21;;;;;;;;;;;;;;;-8.15;59.58;97669.13;6320686;28;20234;-67
2023/03/12 01:14:26;;;;;;;10.80;5.35;;;;;;;-8.21;59.47;97681.78;6321761;28;20011;-66
2023/03/12 01:17:31;;;;;;;9.43;5.70;;;;;;;-8.21;59.47;97681.78;6321572;28;20032;-66
2023/03/12 01:20:36;;;;;;;13.75;5.43;;;;;;;-8.21;59.99;97686.88;6321451;28;20523;-67
2023/03/12 01:23:41;;;;;;;9.35;5.40;;;;;;;-8.20;59.76;97687.75;6321263;28;20046;-67
2023/03/12 01:26:44;;;;;;;;;;;;;;;-8.21;60.08;97697.09;6321657;28;20051;-67
2023/03/12 01:29:50;;;;;;;12.05;4.82;;;;;;;-8.27;59.29;97696.94;6320978;28;20065;-67
2023/03/12 01:32:55;;;;;;;12.40;6.10;;;;;;;-8.28;59.43;97704.56;6319056;28;20051;-66
2023/03/12 01:36:00;;;;;;;11.13;5.45;;;;;;;-8.29;60.02;97708.81;6320968;28;20048;-66
2023/03/12 01:39:06;;;;;;;6.47;4.68;;;;;;;-8.31;59.50;97705.38;6321074;28;20047;-67
2023/03/12 01:42:11;;;;;;;11.80;4.85;;;;;;;-8.34;59.67;97712.97;6319340;28;20048;-66
2023/03/12 01:45:51;;;;;;;10.43;5.25;;;;;;;-8.37;59.57;97716.28;6320608;28;20040;-67
2023/03/12 01:49:14;;;;;;;18.98;6.03;;;;;;;-8.44;59.96;97709.34;6320633;28;20048;-66
2023/03/12 01:52:32;;;;;;;15.98;5.90;;;;;;;-8.49;59.87;97725.38;6320740;28;20509;-67
2023/03/12 01:55:37;;;;;;;13.65;6.25;;;;;;;-8.55;59.90;97725.25;6320055;28;20047;-66
2023/03/12 01:58:46;;;;;;;14.57;6.30;;;;;;;-8.54;59.71;97729.53;6320586;28;20368;-67
2023/03/12 02:01:52;;;;;;;15.13;6.78;;;;;;;-8.60;59.83;97726.00;6320398;28;20509;-67
2023/03/12 02:05:28;;;;;;;16.20;7.03;;;;;;;-8.61;60.02;97737.03;6319109;28;20123;-67
2023/03/12 02:08:37;;;;;;;14.70;6.90;;;;;;;-8.65;59.94;97744.59;6319338;28;20044;-66
2023/03/12 02:11:42;;;;;;;19.40;7.28;;;;;;;-8.67;59.78;97747.09;6302333;28;20048;-67
2023/03/12 02:14:48;;;;;;;21.70;6.95;;;;;;;-8.68;59.79;97749.63;6320372;28;20048;-68
2023/03/12 02:17:53;;;;;;;17.00;6.85;;;;;;;-8.68;60.06;97755.56;6318579;28;20536;-66
2023/03/12 02:21:09;;;;;;;13.43;6.30;;;;;;;-8.69;59.97;97753.84;6320178;28;20036;-67
2023/03/12 02:24:16;;;;;;;11.02;6.15;;;;;;;-8.71;59.95;97765.72;6319862;28;20039;-67
2023/03/12 02:27:22;;;;;;;15.35;6.63;;;;;;;-8.72;59.67;97763.97;6319992;28;20054;-66
2023/03/12 02:30:29;;;;;;;12.27;6.65;;;;;;;-8.71;59.67;97767.41;6318708;28;20044;-69
2023/03/12 02:33:34;;;;;;;12.02;5.68;;;;;;;-8.69;59.70;97775.94;6319603;28;20051;-66
2023/03/12 02:36:38;;;;;;;11.40;5.80;;;;;;;-8.69;59.96;97775.94;6319641;28;20039;-66
2023/03/12 02:39:51;;;;;;;12.38;5.80;;;;;;;-8.67;60.17;97781.94;6319247;28;20431;-67
2023/03/12 02:42:56;;;;;;;12.82;6.03;;;;;;;-8.67;59.54;97780.25;6319526;28;20044;-67
2023/03/12 02:46:00;;;;;;;10.18;5.68;;;;;;;-8.65;59.23;97786.25;6319479;28;20040;-68
2023/03/12 02:49:06;;;;;;;16.75;5.72;;;;;;;-8.62;59.33;97791.44;6317943;28;20051;-66
2023/03/12 02:52:10;;;;;;;14.65;7.88;;;;;;;-8.60;58.99;97794.91;6318171;28;20044;-67
2023/03/12 02:55:15;;;;;;;17.23;7.38;;;;;;;-8.55;59.18;97801.78;6319125;28;20066;-67
2023/03/12 02:58:21;;;;;;;16.25;6.53;;;;;;;-8.47;58.83;97802.84;6319580;28;20054;-67
2023/03/12 03:01:25;;;;;;;26.73;8.00;;;;;;;-8.38;59.15;97810.69;6319190;28;20040;-66
2023/03/12 03:04:28;;;;;;;;;;;;;;;-8.26;58.91;97813.56;6319734;28;20050;-66
2023/03/12 03:07:33;;;;;;;20.52;7.80;;;;;;;-8.18;58.46;97809.50;6319530;28;19923;-68
2023/03/12 03:10:36;;;;;;;;;;;;;;;-8.09;57.98;97808.00;6319514;28;20046;-67
2023/03/12 03:13:41;;;;;;;27.25;13.70;;;;;;;-8.00;58.05;97823.53;6319075;28;20033;-68
2023/03/12 03:16:45;;;;;;;23.67;10.27;;;;;;;-7.88;57.36;97816.13;6318035;28;20389;-67
2023/03/12 03:19:52;;;;;;;25.98;11.10;;;;;;;-7.82;57.51;97826.47;6319199;28;20032;-67
2023/03/12 03:22:57;;;;;;;29.48;12.02;;;;;;;-7.78;57.69;97837.66;6318927;28;20066;-68
2023/03/12 03:26:02;;;;;;;26.15;10.90;;;;;;;-7.74;57.43;97835.19;6317917;28;20043;-66
2023/03/12 03:29:06;;;;;;;24.73;10.73;;;;;;;-7.68;57.21;97832.75;6319146;28;20043;-67
2023/03/12 03:32:11;;;;;;;23.73;9.98;;;;;;;-7.61;57.84;97845.66;6318885;28;20042;-68
2023/03/12 03:35:17;;;;;;;25.33;12.88;;;;;;;-7.53;57.50;97846.69;6318703;28;20055;-68
2023/03/12 03:38:25;;;;;;;26.00;11.43;;;;;;;-7.43;57.42;97853.75;6318791;28;20046;-67
2023/03/12 03:41:31;;;;;;;25.95;11.10;;;;;;;-7.32;56.82;97847.16;6319134;28;20051;-67
2023/03/12 03:44:36;;;;;;;27.33;11.77;;;;;;;-7.24;57.37;97858.41;6317630;28;20048;-66
2023/03/12 03:47:39;;;;;;;;;;;;;;;-7.11;57.46;97867.19;6319171;28;20054;-67
2023/03/12 03:50:44;;;;;;;33.85;12.30;;;;;;;-7.02;56.67;97856.28;6318632;28;19951;-67
2023/03/12 03:53:47;;;;;;;;;;;;;;;-6.90;56.77;97855.69;6322930;28;20055;-68
2023/03/12 03:56:51;;;;;;;23.77;12.10;;;;;;;-6.80;56.59;97883.16;6323294;28;19926;-67
2023/03/12 03:59:59;;;;;;;25.38;11.15;;;;;;;-6.65;56.57;97882.59;6323095;28;20450;-67
2023/03/12 04:03:03;;;;;;;25.42;11.60;;;;;;;-6.51;56.52;97873.50;6322941;28;20413;-67
2023/03/12 04:06:06;;;;;;;;;;;;;;;-6.33;56.46;97891.72;6322160;28;20036;-67
2023/03/12 04:09:11;;;;;;;29.55;14.38;;;;;;;-6.18;55.72;97895.41;6323240;28;20018;-67
2023/03/12 04:12:17;;;;;;;19.95;11.43;;;;;;;-6.01;55.87;97908.50;6323088;28;20048;-68
2023/03/12 04:15:21;;;;;;;23.80;10.40;;;;;;;-5.85;55.83;97912.16;6304782;28;20063;-68
2023/03/12 04:18:26;;;;;;;30.67;10.52;;;;;;;-5.68;56.18;97929.53;6322758;28;20123;-68
2023/03/12 04:21:31;;;;;;;27.80;11.02;;;;;;;-5.51;55.38;97922.09;6321359;28;20036;-67
2023/03/12 04:24:34;;;;;;;;;;;;;;;-5.36;55.87;97930.84;6321938;28;20061;-67
2023/03/12 04:27:38;;;;;;;20.00;10.07;;;;;;;-5.25;55.56;97935.31;6322736;28;20034;-67
2023/03/12 04:30:42;;;;;;;29.40;10.80;;;;;;;-5.11;55.46;97943.19;6322630;28;20536;-68
2023/03/12 04:33:44;;;;;;;;;;;;;;;-4.93;55.59;97941.72;6322858;28;20050;-67
2023/03/12 04:36:49;;;;;;;19.23;9.90;;;;;;;-4.77;55.07;97938.50;6322411;28;20077;-68
2023/03/12 04:39:54;;;;;;;28.48;13.50;;;;;;;-4.58;54.87;97945.59;6322698;28;20050;-68
2023/03/12 04:42:58;;;;;;;31.27;14.55;;;;;;;-4.41;54.87;97952.66;6322342;28;20043;-67
2023/03/12 04:46:05;;;;;;;;;;;;;;;-4.21;54.89;97948.59;6322607;28;20062;-68
2023/03/12 04:49:09;;;;;;;31.92;13.80;;;;;;;-4.09;54.15;97951.28;6322182;28;20041;-67
2023/03/12 04:52:16;;;;;;;27.45;12.27;;;;;;;-3.89;54.21;97963.47;6322371;28;20413;-67
2023/03/12 04:55:21;;;;;;;20.85;9.23;;;;;;;-3.68;54.32;97957.66;6321979;28;20424;-66
2023/03/12 04:58:27;;;;;;;18.17;6.45;;;;;;;-3.47;53.70;97952.69;6321768;28;20071;-68
2023/03/12 05:01:34;;;;;;;11.98;4.97;;;;;;;-3.24;52.43;97967.44;6321772;28;20523;-67
2023/03/12 05:04:38;;;;;;;9.77;4.47;;;;;;;-3.19;52.64;97964.06;6321196;28;20047;-67
2023/03/12 05:07:43;;;;;;;11.20;4.70;;;;;;;-3.02;52.07;97973.63;6321691;28;20047;-67
2023/03/12 05:10:48;;;;;;;9.32;4.30;;;;;;;-2.97;51.86;97980.53;6321772;28;20050;-68
2023/03/12 05:13:53;;;;;;;7.85;3.63;;;;;;;-2.85;51.72;97969.44;6321500;28;20524;-67
2023/03/12 05:16:58;;;;;;;7.22;3.60;;;;;;;-2.66;51.27;97961.78;6321475;28;20138;-67
2023/03/12 05:20:06;;;;;;;6.47;3.15;;;;;;;-2.44;50.60;97971.31;6321433;28;20043;-67
2023/03/12 05:23:10;;;;;;;5.13;2.88;;;;;;;-2.33;50.22;97974.81;6321367;28;20036;-67
2023/03/12 05:26:30;;;;;;;7.60;2.88;;;;;;;-2.16;49.65;97971.44;6321310;28;20043;-66
2023/03/12 05:29:36;;;;;;;3.17;2.13;;;;;;;-2.05;49.56;97974.91;6321255;28;20050;-69
2023/03/12 05:32:41;;;;;;;4.43;2.65;;;;;;;-1.97;48.87;97983.53;6320658;28;20039;-67
2023/03/12 05:35:46;;;;;;;4.35;1.90;;;;;;;-1.85;49.19;97978.38;6319121;28;20066;-68
2023/03/12 05:38:51;;;;;;;8.55;3.22;;;;;;;-1.74;48.80;97975.84;6320840;28;20040;-69
2023/03/12 05:41:56;;;;;;;5.70;2.80;;;;;;;-1.49;47.56;97979.31;6319720;28;20051;-67
2023/03/12 05:45:00;;;;;;;5.22;3.17;;;;;;;-1.38;47.44;97979.31;6320699;28;20051;-67
2023/03/12 05:48:07;;;;;;;2.45;2.25;;;;;;;-0.87;46.36;97984.44;6320571;28;20044;-67
2023/03/12 05:51:12;;;;;;;6.30;2.15;;;;;;;3.78;40.59;97993.28;6320680;28;20061;-68
2023/03/12 05:54:18;;;;;;;2.92;1.70;;;;;;;9.57;32.01;97995.31;6320697;28;20064;-68
2023/03/12 05:57:23;;;;;;;2.90;1.42;;;;;;;13.83;27.16;97996.31;6320416;28;20428;-67
2023/03/12 06:00:26;;;;;;;;;;;;;;;17.18;26.39;98000.59;6320825;28;20044;-68
2023/03/12 06:03:31;;;;;;;3.55;1.50;;;;;;;19.11;22.74;98006.97;6320331;28;19926;-68
2023/03/12 06:06:36;;;;;;;2.03;1.10;;;;;;;21.26;20.09;98004.59;6320409;28;20428;-68
2023/03/12 06:09:41;;;;;;;1.35;1.23;;;;;;;22.76;18.10;97995.94;6320122;28;20425;-67
2023/03/12 06:12:46;;;;;;;3.22;1.00;;;;;;;22.58;17.50;97992.31;6320090;28;20054;-68
2023/03/12 06:15:51;;;;;;;2.30;1.30;;;;;;;22.85;16.85;98005.75;6317709;28;20059;-68
2023/03/12 06:18:59;;;;;;;2.50;1.00;;;;;;;23.48;15.86;98006.81;6319912;28;20135;-67
2023/03/12 06:22:04;;;;;;;2.45;1.40;;;;;;;22.32;14.25;97992.97;6319773;28;20040;-67
2023/03/12 06:25:08;;;;;;;2.05;1.40;;;;;;;21.74;14.52;97999.28;6319690;28;20046;-69
2023/03/12 06:28:13;;;;;;;2.05;1.25;;;;;;;21.44;14.46;98000.25;6319627;28;20048;-67
2023/03/12 06:31:18;;;;;;;4.15;2.10;;;;;;;22.46;13.80;98004.25;6320168;28;20087;-68
2023/03/12 06:34:23;;;;;;;1.48;1.38;;;;;;;23.49;13.43;98001.25;6318430;28;20066;-68
2023/03/12 06:37:27;;;;;;;3.80;1.67;;;;;;;24.23;12.59;98017.19;6319749;28;20050;-68
2023/03/12 06:40:31;;;;;;;4.07;1.88;;;;;;;24.75;12.33;98014.50;6319376;28;20498;-68
2023/03/12 06:43:37;;;;;;;2.40;1.58;;;;;;;25.71;11.98;98014.97;6318465;28;20055;-70
2023/03/12 06:46:43;;;;;;;2.67;1.27;;;;;;;25.52;11.59;98013.41;6319372;28;20412;-68
2023/03/12 06:49:47;;;;;;;3.15;1.67;;;;;;;25.93;11.99;98024.28;6319731;28;20435;-69
2023/03/12 06:52:52;;;;;;;3.15;1.55;;;;;;;26.47;11.04;98020.13;6319410;28;20047;-69
2023/03/12 06:55:57;;;;;;;2.25;1.50;;;;;;;27.19;10.97;98015.56;6319525;28;20517;-68
2023/03/12 06:59:01;;;;;;;2.88;2.13;;;;;;;27.25;10.80;98025.66;6319282;28;20036;-67
2023/03/12 07:02:06;;;;;;;3.25;1.42;;;;;;;27.47;10.50;98018.59;6319141;28;20047;-68
2023/03/12 07:05:11;;;;;;;3.53;1.50;;;;;;;27.36;10.26;98015.47;6319316;28;20050;-68
2023/03/12 07:08:15;;;;;;;2.03;0.80;;;;;;;26.82;10.84;98013.50;6317937;28;20043;-68
2023/03/12 07:11:19;;;;;;;2.40;1.20;;;;;;;26.40;10.83;98010.03;6319112;28;20044;-68
2023/03/12 07:14:24;;;;;;;2.03;1.10;;;;;;;26.08;10.29;98012.81;6319416;28;20428;-68
2023/03/12 07:17:29;;;;;;;2.17;0.73;;;;;;;25.60;10.63;98012.59;6318843;28;20044;-68
2023/03/12 07:20:36;;;;;;;2.35;0.73;;;;;;;25.18;10.91;98029.66;6317744;28;20055;-69
2023/03/12 07:23:40;;;;;;;0.75;0.70;;;;;;;25.75;10.57;98020.84;6318885;28;20059;-67
2023/03/12 07:26:45;;;;;;;1.23;0.63;;;;;;;26.10;10.47;98029.63;6321821;28;20051;-68
2023/03/12 07:29:51;;;;;;;1.67;0.70;;;;;;;26.32;10.46;98030.81;6323838;28;20047;-68
2023/03/12 07:32:56;;;;;;;1.90;0.60;;;;;;;26.51;9.83;98035.03;6323643;28;20044;-68
2023/03/12 07:36:01;;;;;;;0.82;0.70;;;;;;;25.36;10.14;98032.22;6323799;28;20046;-68
2023/03/12 07:39:07;;;;;;;1.17;0.80;;;;;;;25.04;10.45;98031.09;6322498;28;20512;-69
2023/03/12 07:42:13;;;;;;;1.52;0.90;;;;;;;24.62;10.70;98031.06;6323538;28;20036;-68
2023/03/12 07:45:19;;;;;;;2.10;0.95;;;;;;;24.69;10.82;98042.91;6323618;28;20040;-67
2023/03/12 07:48:24;;;;;;;1.50;0.93;;;;;;;25.92;10.64;98027.13;6323607;28;20429;-69
2023/03/12 07:51:28;;;;;;;1.73;0.85;;;;;;;27.50;9.60;98036.34;6323382;28;20044;-68
2023/03/12 07:54:33;;;;;;;2.83;0.90;;;;;;;28.61;9.18;98041.19;6323032;28;20063;-69
2023/03/12 07:57:37;;;;;;;1.25;1.00;;;;;;;29.51;8.81;98040.09;6323172;28;20048;-69
2023/03/12 08:00:43;;;;;;;2.45;0.80;;;;;;;30.01;8.42;98045.66;6323209;28;20043;-69
2023/03/12 08:03:47;;;;;;;1.63;1.00;;;;;;;28.91;8.65;98038.50;6321736;28;20070;-69
2023/03/12 08:06:52;;;;;;;1.02;0.80;;;;;;;27.85;9.15;98050.31;6322599;28;20511;-68
2023/03/12 08:09:57;;;;;;;2.63;1.25;;;;;;;26.98;9.48;98039.63;6322739;28;20048;-68
2023/03/12 08:13:02;;;;;;;3.35;1.70;;;;;;;27.47;9.21;98042.09;6322935;28;20131;-69
2023/03/12 08:16:07;;;;;;;2.50;1.70;;;;;;;27.33;9.51;98053.66;6323432;28;20047;-69
2023/03/12 08:19:12;;;;;;;3.20;1.70;;;;;;;26.45;9.92;98044.63;6323205;28;20044;-69
2023/03/12 08:22:17;;;;;;;1.17;1.02;;;;;;;25.17;10.24;98032.53;6322784;28;20032;-69
2023/03/12 08:25:23;;;;;;;1.77;1.08;;;;;;;25.26;10.48;98043.16;6321358;28;20040;-68
2023/03/12 08:28:27;;;;;;;2.50;1.20;;;;;;;25.54;10.47;98041.03;6322666;28;20044;-68
2023/03/12 08:31:30;;;;;;;;;;;;;;;27.05;9.86;98046.00;6321501;28;20036;-67
2023/03/12 08:34:35;;;;;;;2.40;0.90;;;;;;;26.31;9.98;98046.16;6322008;28;20025;-68
2023/03/12 08:37:40;;;;;;;1.55;0.95;;;;;;;25.65;9.75;98039.88;6321379;28;20046;-68
2023/03/12 08:40:45;;;;;;;1.17;0.75;;;;;;;25.17;10.44;98037.94;6322435;28;20059;-69
2023/03/12 08:43:50;;;;;;;0.93;0.80;;;;;;;24.45;10.70;98032.81;6321997;28;20409;-68
2023/03/12 08:46:55;;;;;;;1.85;1.00;;;;;;;24.68;10.69;98026.91;6322077;28;20040;-68
2023/03/12 08:49:59;;;;;;;0.85;0.82;;;;;;;24.40;10.76;98027.03;6321648;28;20039;-69
2023/03/12 08:53:05;;;;;;;1.85;1.42;;;;;;;23.75;10.85;98025.56;6321504;28;20040;-68
2023/03/12 08:56:11;;;;;;;2.05;1.42;;;;;;;24.17;10.96;98030.25;6322208;28;20369;-67
2023/03/12 08:59:15;;;;;;;2.75;1.27;;;;;;;24.87;10.59;98021.28;6321751;28;20042;-68
2023/03/12 09:02:20;;;;;;;2.03;1.10;;;;;;;24.63;10.85;98032.78;6321948;28;20036;-68
2023/03/12 09:05:28;;;;;;;1.10;1.00;;;;;;;24.05;11.23;98011.84;6320591;28;20066;-69
2023/03/12 09:08:32;;;;;;;1.52;1.13;;;;;;;23.63;11.58;98017.84;6321768;28;20040;-68
2023/03/12 09:11:41;;;;;;;3.03;1.45;;;;;;;24.61;11.27;98010.56;6321448;28;20036;-69
2023/03/12 09:14:46;;;;;;;4.10;1.33;;;;;;;25.65;10.82;98020.19;6320182;28;20047;-69
2023/03/12 09:17:52;;;;;;;1.63;1.23;;;;;;;25.56;10.80;98011.22;6321531;28;20497;-69
2023/03/12 09:20:58;;;;;;;1.23;1.10;;;;;;;26.49;10.33;98007.31;6321372;28;20047;-68
2023/03/12 09:24:03;;;;;;;5.18;3.65;;;;;;;25.37;10.27;98025.03;6321180;28;20047;-69
2023/03/12 09:27:09;;;;;;;4.93;1.98;;;;;;;24.24;10.97;98002.75;6321503;28;20433;-69
2023/03/12 09:30:16;;;;;;;1.40;1.02;;;;;;;23.89;11.34;98000.00;6319775;28;20132;-69
2023/03/12 09:33:21;;;;;;;1.95;1.17;;;;;;;23.29;11.77;98014.00;6320816;28;20043;-68
2023/03/12 09:36:26;;;;;;;1.05;1.00;;;;;;;23.21;11.56;98013.94;6321500;28;20520;-69
2023/03/12 09:39:30;;;;;;;1.38;1.17;;;;;;;22.74;11.72;98000.59;6321062;28;20043;-68
2023/03/12 09:42:47;;;;;;;4.05;2.67;;;;;;;21.51;12.75;97998.72;6320592;28;20036;-69
2023/03/12 09:45:54;;;;;;;3.13;2.00;;;;;;;21.57;12.93;98001.81;6320915;28;20036;-69
2023/03/12 09:49:04;;;;;;;2.08;1.67;;;;;;;22.68;12.20;97993.13;6319102;28;20074;-70
2023/03/12 09:52:19;;;;;;;2.58;1.70;;;;;;;23.71;12.23;98000.00;6320624;28;20040;-69
2023/03/12 09:55:26;;;;;;;2.70;1.73;;;;;;;23.96;11.69;98002.88;6320193;28;20058;-68
2023/03/12 09:58:37;;;;;;;2.55;1.42;;;;;;;23.84;11.44;97990.69;6320337;28;20039;-69
2023/03/12 10:01:58;;;;;;;1.65;1.20;;;;;;;22.58;12.41;97990.47;6320250;28;20510;-69
2023/03/12 10:05:35;;;;;;;2.08;1.50;;;;;;;21.68;13.13;97990.94;6320125;28;20055;-68
2023/03/12 10:09:04;;;;;;;2.95;1.30;;;;;;;21.18;13.40;97996.41;6320060;28;20054;-69
2023/03/12 10:12:32;;;;;;;1.63;1.50;;;;;;;20.13;14.46;97999.38;6320342;28;20040;-68
2023/03/12 10:15:43;;;;;;;2.58;1.60;;;;;;;21.01;13.78;97998.78;6318831;28;20048;-68
2023/03/12 10:19:16;;;;;;;1.70;1.30;;;;;;;20.05;14.15;98005.38;6320070;28;20414;-69
2023/03/12 10:22:40;;;;;;;1.48;1.20;;;;;;;18.49;15.22;97994.19;6303391;28;20059;-68
2023/03/12 10:26:02;;;;;;;3.67;1.60;;;;;;;18.15;15.82;97996.84;6319904;28;20067;-68
2023/03/12 10:29:38;;;;;;;1.88;1.60;;;;;;;18.45;15.72;97995.38;6320210;28;20044;-69
2023/03/12 10:32:49;;;;;;;2.60;1.20;;;;;;;18.43;15.25;97994.66;6305427;28;20047;-68
2023/03/12 10:35:53;;;;;;;1.92;1.58;;;;;;;18.56;15.47;97992.72;6320130;28;20071;-69
2023/03/12 10:38:58;;;;;;;1.60;1.50;;;;;;;18.60;15.56;97997.69;6319359;28;20047;-68
2023/03/12 10:42:11;;;;;;;3.45;1.85;;;;;;;18.95;15.26;97999.38;6319641;28;20055;-68
2023/03/12 10:45:48;;;;;;;3.08;1.73;;;;;;;19.44;15.11;98005.16;6319449;28;20043;-68
2023/03/12 10:49:21;;;;;;;1.95;1.65;;;;;;;19.64;15.29;97999.00;6319252;28;20424;-68
2023/03/12 10:52:24;;;;;;;7.05;4.72;;;;;;;19.88;14.88;98000.63;6318985;28;20047;-68
2023/03/12 10:55:31;;;;;;;2.38;2.17;;;;;;;19.67;14.88;98003.25;6318856;28;20090;-68
2023/03/12 10:58:42;;;;;;;3.58;2.60;;;;;;;19.26;15.33;98013.72;6319349;28;20044;-68
2023/03/12 11:01:51;;;;;;;2.50;1.90;;;;;;;18.65;15.94;98005.31;6318782;28;20062;-68
2023/03/12 11:04:57;;;;;;;2.63;2.10;;;;;;;17.72;16.73;98008.09;6319180;28;20047;-69
2023/03/12 11:08:18;;;;;;;2.45;1.85;;;;;;;16.67;17.41;98006.88;6317675;28;20581;-68
2023/03/12 11:11:31;;;;;;;;;;;;;;;17.18;17.17;98001.47;6319595;28;20506;-68
2023/03/12 11:14:45;;;;;;;1.70;1.60;;;;;;;17.51;16.93;98007.88;6319085;28;19927;-68
2023/03/12 11:17:51;;;;;;;7.32;4.55;;;;;;;18.00;16.81;98012.16;6318979;28;20402;-68
2023/03/12 11:21:17;;;;;;;3.45;2.63;;;;;;;17.72;16.88;98000.09;6319024;28;20097;-69
2023/03/12 11:24:22;;;;;;;5.20;2.38;;;;;;;17.39;17.09;98007.00;6318870;28;20568;-68
2023/03/12 11:27:35;;;;;;;2.53;1.95;;;;;;;16.53;17.88;98005.25;6318984;28;20224;-68
2023/03/12 11:30:41;;;;;;;1.80;1.70;;;;;;;16.01;18.45;98011.53;6317296;28;20063;-68
2023/03/12 11:33:46;;;;;;;4.10;2.47;;;;;;;15.58;18.91;97995.84;6318813;28;20050;-67
2023/03/12 11:36:58;;;;;;;2.10;1.88;;;;;;;15.67;18.91;97994.38;6318680;28;20490;-68
2023/03/12 11:40:17;;;;;;;3.60;2.30;;;;;;;15.13;19.65;97989.13;6318957;28;20524;-68
2023/03/12 11:43:51;;;;;;;2.63;1.90;;;;;;;14.70;20.04;97987.47;6318846;28;20063;-68
2023/03/12 11:47:13;;;;;;;2.55;2.28;;;;;;;14.27;20.68;97990.13;6317386;28;20036;-67
2023/03/12 11:50:40;;;;;;;4.38;2.20;;;;;;;14.14;20.75;97983.88;6317342;28;20047;-68
2023/03/12 11:54:08;;;;;;;3.65;2.63;;;;;;;13.17;21.60;97986.13;6318325;28;20063;-68
2023/03/12 11:57:49;;;;;;;3.40;2.78;;;;;;;12.32;23.02;97982.06;6318844;28;20524;-68
2023/03/12 12:01:20;;;;;;;5.00;2.20;;;;;;;11.63;23.73;97985.63;6295366;28;20048;-68
2023/03/12 12:04:39;;;;;;;2.05;1.58;;;;;;;10.95;24.21;97980.25;6318540;28;20047;-69
2023/03/12 12:08:28;;;;;;;2.65;1.70;;;;;;;10.40;25.00;97981.13;6318507;28;20048;-68
2023/03/12 12:11:55;;;;;;;2.55;1.60;;;;;;;10.33;24.98;97975.28;6302266;28;20513;-69
2023/03/12 12:15:16;;;;;;;2.10;1.70;;;;;;;10.40;24.95;97972.38;6321982;28;20050;-67
2023/03/12 12:18:38;;;;;;;4.78;2.00;;;;;;;10.44;24.97;97989.72;6322976;28;20047;-69
2023/03/12 12:22:03;;;;;;;4.57;2.10;;;;;;;9.93;26.03;97984.09;6322545;28;20050;-68
2023/03/12 12:25:09;;;;;;;2.90;2.13;;;;;;;10.84;24.98;97985.19;6321494;28;20051;-68
2023/03/12 12:28:42;;;;;;;2.65;1.88;;;;;;;11.62;24.52;97976.88;6322612;28;20497;-68
2023/03/12 12:31:56;;;;;;;3.22;1.83;;;;;;;11.52;24.24;97975.66;6322320;28;20044;-68
2023/03/12 12:35:44;;;;;;;3.35;1.85;;;;;;;10.50;25.63;97979.78;6304268;28;20055;-68
2023/03/12 12:39:13;;;;;;;2.30;1.70;;;;;;;9.24;27.06;97968.69;6285574;28;20058;-68
2023/03/12 12:42:35;;;;;;;4.10;1.63;;;;;;;8.66;27.91;97961.44;6311739;28;20060;-68
2023/03/12 12:45:41;;;;;;;4.90;1.65;;;;;;;8.50;28.24;97968.19;6320858;28;20040;-68
2023/03/12 12:48:57;;;;;;;5.93;2.00;;;;;;;7.97;29.37;97961.41;6321940;28;20065;-68
2023/03/12 12:52:06;;;;;;;3.35;1.92;;;;;;;7.32;30.20;97962.00;6322037;28;20050;-67
2023/03/12 12:55:24;;;;;;;3.92;2.17;;;;;;;7.20;30.53;97958.88;6321315;28;20048;-68
2023/03/12 12:59:23;;;;;;;5.05;2.20;;;;;;;6.90;30.88;97965.13;6321935;28;20035;-67
2023/03/12 13:02:32;;;;;;;2.65;2.08;;;;;;;6.50;31.48;97962.03;6218929;28;20053;-68
2023/03/12 13:05:36;;;;;;;4.05;1.85;;;;;;;6.20;32.18;97961.22;6221747;28;20042;-67
2023/03/12 13:08:46;;;;;;;5.18;2.35;;;;;;;5.82;32.61;97947.47;6321714;28;20492;-67
2023/03/12 13:11:50;;;;;;;4.65;3.10;;;;;;;5.34;33.73;97960.97;6321551;28;20036;-68
2023/03/12 13:14:54;;;;;;;3.35;2.30;;;;;;;4.99;34.26;97956.69;6321420;28;20043;-69
2023/03/12 13:18:07;;;;;;;6.80;3.80;;;;;;;4.18;35.74;97956.00;6321549;28;20566;-67
2023/03/12 13:21:21;;;;;;;6.50;3.67;;;;;;;3.56;37.75;97949.44;6320987;28;20044;-68
2023/03/12 13:24:32;;;;;;;4.90;2.83;;;;;;;2.97;38.63;97954.00;6320663;28;20097;-68
2023/03/12 13:27:39;;;;;;;5.30;2.63;;;;;;;2.49;40.25;97953.94;6320663;28;20452;-68
2023/03/12 13:30:48;;;;;;;2.88;2.35;;;;;;;1.84;42.15;97950.53;6321289;28;20036;-67
2023/03/12 13:33:51;;;;;;;3.33;2.03;;;;;;;1.51;41.89;97952.66;6320995;28;20602;-68
2023/03/12 13:37:02;;;;;;;3.55;2.97;;;;;;;1.15;42.99;97949.59;6321180;28;20036;-67
2023/03/12 13:40:30;;;;;;;4.28;3.20;;;;;;;1.01;42.44;97960.09;6319432;28;20059;-67
2023/03/12 13:43:34;;;;;;;6.30;3.13;;;;;;;0.83;42.68;97968.91;6320661;28;20043;-67
2023/03/12 13:46:43;;;;;;;5.30;3.60;;;;;;;0.70;43.88;97961.25;6320022;28;20048;-67
2023/03/12 13:50:13;;;;;;;5.97;3.33;;;;;;;0.65;43.35;97964.75;6320644;28;20426;-68
2023/03/12 13:53:21;;;;;;;5.10;3.38;;;;;;;0.37;44.02;97968.41;6319445;28;20524;-68
2023/03/12 13:56:30;;;;;;;4.72;2.90;;;;;;;0.33;43.95;97966.69;6320532;28;20040;-68
2023/03/12 13:59:41;;;;;;;5.05;3.72;;;;;;;0.10;45.74;97969.44;6320472;28;20048;-68
2023/03/12 14:02:58;;;;;;;5.60;3.58;;;;;;;0.09;46.73;97978.06;6320104;28;20044;-66
2023/03/12 14:06:09;;;;;;;5.28;3.35;;;;;;;-0.04;47.50;97972.94;6319628;28;20509;-67
2023/03/12 14:09:33;;;;;;;4.03;2.78;;;;;;;-0.25;48.48;97973.06;6320136;28;20055;-67
2023/03/12 14:13:04;;;;;;;4.50;3.42;;;;;;;-0.21;49.20;97981.66;6319874;28;20066;-68
2023/03/12 14:16:30;;;;;;;10.57;6.50;;;;;;;-0.47;50.16;97993.81;6320121;28;20047;-70
2023/03/12 14:19:46;;;;;;;3.90;3.42;;;;;;;-0.40;51.20;97994.66;6319689;28;20044;-67
2023/03/12 14:22:53;;;;;;;6.68;3.20;;;;;;;-0.47;51.37;98004.16;6319481;28;20048;-67
2023/03/12 14:26:01;;;;;;;8.48;4.53;;;;;;;-0.80;51.88;97999.06;6320045;28;20202;-68
2023/03/12 14:29:21;;;;;;;5.82;3.67;;;;;;;-0.75;52.67;98005.09;6318806;28;20108;-68
2023/03/12 14:32:27;;;;;;;5.65;3.50;;;;;;;-1.05;53.04;98013.72;6319979;28;20036;-67
2023/03/12 14:35:39;;;;;;;3.22;2.30;;;;;;;-1.09;53.57;98002.53;6318889;28;20051;-68
2023/03/12 14:38:45;;;;;;;3.95;2.28;;;;;;;-1.31;53.97;98006.00;6319862;28;20044;-68
2023/03/12 14:42:04;;;;;;;4.22;2.28;;;;;;;-1.23;54.54;98015.47;6319753;28;20569;-68
2023/03/12 14:45:15;;;;;;;3.05;2.67;;;;;;;-1.39;54.50;98019.78;6319482;28;20052;-67
2023/03/12 14:48:22;;;;;;;2.25;2.00;;;;;;;-1.40;55.49;98014.59;6315394;28;20048;-67
2023/03/12 14:51:29;;;;;;;1.48;1.33;;;;;;;-1.34;55.46;98016.31;6319335;28;20043;-67
2023/03/12 14:54:32;;;;;;;2.55;2.05;;;;;;;-1.36;55.90;98008.56;6318697;28;20157;-67